KMKG/MKG METAR and TAF weather

Enter ICAO airport designator
Station Type Date Time Source
KMKG METAR 2022/11/27 07:55 UTC NOAA

KMKG 270755Z AUTO 00000KT 9SM CLR 08/04 A2969 RMK AO2 SLP054 T00780039


Station Type Date Time Source
KMKG Decoded METAR 2022/11/27 07:55 UTC NOAA

MUSKEGON COUNTY AIRPORT, MI, United States (KMKG) 43-10N 086-14W 191M
Nov 27, 2022 - 02:55 AM EST / 2022.11.27 0755 UTC
Wind: Calm:0
Visibility: 9 mile(s):0
Sky conditions: clear
Temperature: 46.0 F (7.8 C)
Dew Point: 39.0 F (3.9 C)
Relative Humidity: 76%
Pressure (altimeter): 29.69 in. Hg (1005 hPa)
ob: KMKG 270755Z AUTO 00000KT 9SM CLR 08/04 A2969 RMK AO2 SLP054 T00780039
cycle: 8

Station Type Date Time Source
KMKG TAF 2022/11/27 06:33 UTC NOAA

TAF KMKG 270530Z 2706/2806 20009KT P6SM OVC200
FM271000 10004KT P6SM OVC150
FM271600 01009KT P6SM -SHRA OVC090
FM271800 36009G16KT P6SM -RA BKN030
FM272000 35010G18KT 5SM -RA BR OVC015
FM272300 34011G20KT P6SM BKN025

Example: see airport list